createdAt,value
2023-01-31T00:03:30.675Z,29.40
2023-01-31T00:08:35.080Z,29.30
2023-01-31T00:13:38.341Z,29.40
2023-01-31T00:18:41.656Z,29.40
2023-01-31T00:23:47.116Z,29.50
2023-01-31T00:28:50.973Z,29.50
2023-01-31T00:33:55.854Z,29.60
2023-01-31T00:39:01.816Z,29.60
2023-01-31T00:44:06.011Z,29.60
2023-01-31T00:49:08.881Z,29.60
2023-01-31T00:54:13.193Z,29.60
2023-01-31T00:59:16.325Z,29.50
2023-01-31T01:04:19.163Z,29.50
2023-01-31T01:09:23.752Z,29.50
2023-01-31T01:14:26.655Z,29.50
2023-01-31T01:19:29.547Z,29.60
2023-01-31T01:24:34.273Z,29.50
2023-01-31T01:29:37.707Z,29.60
2023-01-31T01:34:40.547Z,29.60
2023-01-31T01:39:44.720Z,29.70
2023-01-31T01:44:52.017Z,29.80
2023-01-31T01:49:57.823Z,29.90
2023-01-31T01:55:08.052Z,29.70
2023-01-31T02:00:15.149Z,29.60
2023-01-31T02:05:22.386Z,29.60
2023-01-31T02:10:32.353Z,29.60
2023-01-31T02:15:36.369Z,29.70
2023-01-31T02:21:11.881Z,29.80
2023-01-31T02:26:45.626Z,29.90
2023-01-31T02:32:32.128Z,29.90
2023-01-31T02:37:44.228Z,29.80
2023-01-31T02:42:55.097Z,29.80
2023-01-31T02:48:09.715Z,29.70
2023-01-31T02:53:20.324Z,29.60
2023-01-31T02:58:26.301Z,29.60
2023-01-31T03:03:31.551Z,29.70
2023-01-31T03:08:36.607Z,29.70
2023-01-31T03:13:54.366Z,29.80
2023-01-31T03:19:05.485Z,29.80
2023-01-31T03:24:10.137Z,29.80
2023-01-31T03:29:16.378Z,29.80
2023-01-31T03:34:20.140Z,29.80
2023-01-31T03:39:36.070Z,29.80
2023-01-31T03:44:45.106Z,29.80
2023-01-31T03:49:50.369Z,29.70
2023-01-31T03:54:59.480Z,29.80
2023-01-31T04:00:04.650Z,29.80
2023-01-31T04:05:10.907Z,29.80
2023-01-31T04:10:18.276Z,29.70
2023-01-31T04:15:22.231Z,29.80
2023-01-31T04:20:25.406Z,29.70
2023-01-31T04:25:31.812Z,29.60
2023-01-31T04:30:35.608Z,29.60
2023-01-31T04:35:41.062Z,29.60
2023-01-31T04:40:45.374Z,29.70
2023-01-31T04:45:48.282Z,29.70
2023-01-31T04:50:51.187Z,29.70
2023-01-31T04:55:56.735Z,29.60
2023-01-31T05:00:59.721Z,29.80
2023-01-31T05:06:02.640Z,29.90
2023-01-31T05:11:07.535Z,29.90
2023-01-31T05:16:12.228Z,29.90
2023-01-31T05:21:15.037Z,29.90
2023-01-31T05:26:19.516Z,29.80
2023-01-31T05:31:22.517Z,29.60
2023-01-31T05:36:25.948Z,29.60
2023-01-31T05:41:30.118Z,29.50
2023-01-31T05:46:32.961Z,29.50
2023-01-31T05:51:35.907Z,29.50
2023-01-31T05:56:40.258Z,29.50
2023-01-31T06:01:43.235Z,29.10
2023-01-31T06:06:46.392Z,29.60
2023-01-31T06:11:50.537Z,29.60
2023-01-31T06:16:53.478Z,29.60
2023-01-31T06:21:56.438Z,29.60
2023-01-31T06:27:00.721Z,29.50
2023-01-31T06:32:03.635Z,29.50
2023-01-31T06:37:09.157Z,29.40
2023-01-31T06:42:13.450Z,29.40
2023-01-31T06:47:16.296Z,29.40
2023-01-31T06:52:19.113Z,29.40
2023-01-31T06:57:23.328Z,29.40
2023-01-31T07:02:26.741Z,29.40
2023-01-31T07:07:30.156Z,29.40
2023-01-31T07:12:34.495Z,29.40
2023-01-31T07:17:37.461Z,29.50
2023-01-31T07:22:40.362Z,29.50
2023-01-31T07:27:44.608Z,29.60
2023-01-31T07:32:47.496Z,29.60
2023-01-31T07:37:53.151Z,29.60
2023-01-31T07:43:00.787Z,29.60
2023-01-31T07:48:03.601Z,29.50
2023-01-31T07:53:06.406Z,29.50
2023-01-31T07:58:10.977Z,29.50
2023-01-31T08:03:35.237Z,29.40
2023-01-31T08:08:38.922Z,29.50
2023-01-31T08:13:43.385Z,29.50
2023-01-31T08:18:46.404Z,29.50
2023-01-31T08:23:50.292Z,29.50
2023-01-31T08:28:54.943Z,29.50
2023-01-31T08:33:57.851Z,29.60
2023-01-31T08:39:01.101Z,29.60
2023-01-31T08:44:06.263Z,29.70
2023-01-31T08:49:11.483Z,29.90
2023-01-31T08:54:15.264Z,29.90
2023-01-31T08:59:19.519Z,29.90
2023-01-31T09:04:22.398Z,29.90
2023-01-31T09:09:25.947Z,30.00
2023-01-31T09:14:31.233Z,29.90
2023-01-31T09:19:34.193Z,29.70
2023-01-31T09:24:37.108Z,29.70
2023-01-31T09:29:41.602Z,29.80
2023-01-31T09:34:44.483Z,29.80
2023-01-31T09:39:47.343Z,29.80
2023-01-31T09:44:59.253Z,29.80
2023-01-31T09:50:08.756Z,29.90
2023-01-31T09:55:18.490Z,29.90
2023-01-31T10:00:29.588Z,29.90
2023-01-31T10:05:40.745Z,29.90
2023-01-31T10:10:48.218Z,29.90
2023-01-31T10:15:55.181Z,29.90
2023-01-31T10:21:05.070Z,29.90
2023-01-31T10:26:15.025Z,29.90
2023-01-31T10:31:30.293Z,29.90
2023-01-31T10:36:37.235Z,29.90
2023-01-31T10:41:48.749Z,29.80
2023-01-31T10:46:56.919Z,29.80
2023-01-31T10:52:12.250Z,29.80
2023-01-31T10:57:15.683Z,29.80
2023-01-31T11:02:23.943Z,29.90
2023-01-31T11:07:29.612Z,29.90
2023-01-31T11:12:43.984Z,29.90
2023-01-31T11:17:49.266Z,29.90
2023-01-31T11:22:53.033Z,29.80
2023-01-31T11:27:59.636Z,30.00
2023-01-31T11:33:04.155Z,30.00
2023-01-31T11:38:23.159Z,30.00
2023-01-31T11:43:27.603Z,30.00
2023-01-31T11:48:40.607Z,30.00
2023-01-31T11:53:50.339Z,30.00
2023-01-31T11:58:56.124Z,30.00
2023-01-31T12:04:04.663Z,30.00
2023-01-31T12:09:20.669Z,30.00
2023-01-31T12:14:25.037Z,30.00
2023-01-31T12:19:41.331Z,30.00
2023-01-31T12:24:55.050Z,30.00
2023-01-31T12:30:14.839Z,30.00
2023-01-31T12:35:57.660Z,30.10
2023-01-31T12:41:09.198Z,30.10
2023-01-31T12:46:23.174Z,30.20
2023-01-31T12:51:42.762Z,30.20
2023-01-31T12:56:58.077Z,30.20
2023-01-31T13:02:24.145Z,30.20
2023-01-31T13:07:31.995Z,30.10
2023-01-31T13:12:36.836Z,30.00
2023-01-31T13:17:41.703Z,30.00
2023-01-31T13:22:49.089Z,30.00
2023-01-31T13:27:59.373Z,30.00
2023-01-31T13:33:08.387Z,30.00
2023-01-31T13:38:18.444Z,30.10
2023-01-31T13:43:21.451Z,30.10
2023-01-31T13:48:29.660Z,30.10
2023-01-31T13:53:41.248Z,30.20
2023-01-31T13:58:45.846Z,30.20
2023-01-31T14:04:22.368Z,30.30
2023-01-31T14:09:27.870Z,30.40
2023-01-31T14:14:41.151Z,30.40
2023-01-31T14:20:03.503Z,30.40
2023-01-31T14:25:14.562Z,30.30
2023-01-31T14:30:29.756Z,30.20
2023-01-31T14:35:46.535Z,30.10
2023-01-31T14:41:01.040Z,30.10
2023-01-31T14:46:19.541Z,30.10
2023-01-31T14:51:29.207Z,30.10
2023-01-31T14:56:53.259Z,30.10
2023-01-31T15:01:57.565Z,30.10
2023-01-31T15:07:00.390Z,30.10
2023-01-31T15:12:07.867Z,30.10
2023-01-31T15:17:33.070Z,30.10
2023-01-31T15:22:42.434Z,30.10
2023-01-31T15:27:47.539Z,30.10
2023-01-31T15:32:56.584Z,30.00
2023-01-31T15:38:03.943Z,30.00
2023-01-31T15:43:24.608Z,30.10
2023-01-31T15:48:27.458Z,30.10
2023-01-31T15:53:33.163Z,30.10
2023-01-31T15:58:38.913Z,30.10
2023-01-31T16:03:43.724Z,30.00
2023-01-31T16:09:00.752Z,30.00
2023-01-31T16:14:07.799Z,30.00
2023-01-31T16:19:23.814Z,30.00
2023-01-31T16:24:26.905Z,30.00
2023-01-31T16:29:39.935Z,30.00
2023-01-31T16:34:43.569Z,30.00
2023-01-31T16:39:50.668Z,30.10
2023-01-31T16:44:54.845Z,30.10
2023-01-31T16:50:41.864Z,30.00
2023-01-31T16:55:46.631Z,30.00
2023-01-31T17:00:55.830Z,30.00
2023-01-31T17:05:59.033Z,30.00
2023-01-31T17:11:01.861Z,30.00
2023-01-31T17:16:14.488Z,30.00
2023-01-31T17:21:17.530Z,30.00
2023-01-31T17:26:22.465Z,30.00
2023-01-31T17:31:29.390Z,30.10
2023-01-31T17:36:32.368Z,30.10
2023-01-31T17:41:35.608Z,30.00
2023-01-31T17:46:39.828Z,30.00
2023-01-31T17:51:42.839Z,29.90
2023-01-31T17:56:45.721Z,29.90
2023-01-31T18:01:49.998Z,29.80
2023-01-31T18:06:52.892Z,29.80
2023-01-31T18:11:55.746Z,29.80
2023-01-31T18:16:59.891Z,29.70
2023-01-31T18:22:02.756Z,29.70
2023-01-31T18:27:05.765Z,29.60
2023-01-31T18:32:10.708Z,29.40
2023-01-31T18:37:19.929Z,29.40
2023-01-31T18:42:23.188Z,29.30
2023-01-31T18:47:27.437Z,29.10
2023-01-31T18:52:30.844Z,28.90
2023-01-31T18:57:33.705Z,28.70
2023-01-31T19:02:37.939Z,28.60
2023-01-31T19:07:40.877Z,28.60
2023-01-31T19:12:43.812Z,28.50
2023-01-31T19:17:48.001Z,28.40
2023-01-31T19:22:50.859Z,28.40
2023-01-31T19:27:53.699Z,28.20
2023-01-31T19:32:57.922Z,28.20
2023-01-31T19:38:00.852Z,28.10
2023-01-31T19:43:03.666Z,28.00
2023-01-31T19:48:08.131Z,27.80
2023-01-31T19:53:11.204Z,27.70
2023-01-31T19:58:14.009Z,27.60
2023-01-31T20:03:18.173Z,27.50
2023-01-31T20:08:23.128Z,27.40
2023-01-31T20:13:26.609Z,27.10
2023-01-31T20:18:31.617Z,27.10
2023-01-31T20:23:34.944Z,26.90
2023-01-31T20:28:37.833Z,27.20
2023-01-31T20:33:42.436Z,27.40
2023-01-31T20:38:45.537Z,27.20
2023-01-31T20:43:50.359Z,27.20
2023-01-31T20:48:56.846Z,27.20
2023-01-31T20:53:59.655Z,27.10
2023-01-31T20:59:02.534Z,27.20
2023-01-31T21:04:07.911Z,27.10
2023-01-31T21:09:11.086Z,27.10
2023-01-31T21:14:13.933Z,27.10
2023-01-31T21:19:18.212Z,27.10
2023-01-31T21:24:21.058Z,27.00
2023-01-31T21:29:23.891Z,27.10
2023-01-31T21:34:28.151Z,27.00
2023-01-31T21:39:30.992Z,27.20
2023-01-31T21:44:33.823Z,27.20
2023-01-31T21:49:38.287Z,27.30
2023-01-31T21:54:41.156Z,27.40
2023-01-31T21:59:45.487Z,27.50
2023-01-31T22:04:49.697Z,28.00
2023-01-31T22:09:52.515Z,27.70
2023-01-31T22:14:55.325Z,27.80
2023-01-31T22:19:59.576Z,27.80
2023-01-31T22:25:02.457Z,27.90
2023-01-31T22:30:15.775Z,27.80
2023-01-31T22:35:20.790Z,28.10
2023-01-31T22:40:23.901Z,28.30
2023-01-31T22:45:26.920Z,28.50
2023-01-31T22:50:31.252Z,28.50
2023-01-31T22:55:38.664Z,28.60
2023-01-31T23:00:41.545Z,28.70
2023-01-31T23:05:45.930Z,28.80
2023-01-31T23:10:48.753Z,28.80
2023-01-31T23:15:51.622Z,29.00
2023-01-31T23:20:55.989Z,29.00
2023-01-31T23:25:58.800Z,28.70
2023-01-31T23:31:02.872Z,28.90
2023-01-31T23:36:08.074Z,28.90
2023-01-31T23:41:10.958Z,29.00
2023-01-31T23:46:13.874Z,29.10
2023-01-31T23:51:18.041Z,29.10
2023-01-31T23:56:20.854Z,29.10
